createdAt,value
2018-03-08T00:02:22.266Z,5.60
2018-03-08T00:04:50.630Z,5.70
2018-03-08T00:07:18.248Z,5.70
2018-03-08T00:09:45.813Z,5.70
2018-03-08T00:12:13.446Z,5.80
2018-03-08T00:14:41.050Z,5.70
2018-03-08T00:17:08.612Z,5.70
2018-03-08T00:19:36.257Z,5.70
2018-03-08T00:22:03.844Z,5.70
2018-03-08T00:24:31.448Z,5.80
2018-03-08T00:26:59.812Z,5.80
2018-03-08T00:29:28.178Z,5.80
2018-03-08T00:31:55.741Z,5.80
2018-03-08T00:34:23.374Z,5.80
2018-03-08T00:36:51.027Z,5.80
2018-03-08T00:39:18.614Z,5.80
2018-03-08T00:41:46.183Z,5.80
2018-03-08T00:44:14.568Z,5.90
2018-03-08T00:46:42.159Z,5.90
2018-03-08T00:49:09.781Z,5.90
2018-03-08T00:51:37.382Z,5.90
2018-03-08T00:54:05.003Z,5.90
2018-03-08T00:56:32.606Z,5.90
2018-03-08T00:59:00.170Z,5.90
2018-03-08T01:01:31.335Z,5.90
2018-03-08T01:03:58.912Z,5.90
2018-03-08T01:06:26.526Z,5.90
2018-03-08T01:08:54.096Z,5.90
2018-03-08T01:11:21.739Z,6.00
2018-03-08T01:13:50.066Z,6.00
2018-03-08T01:16:17.687Z,6.00
2018-03-08T01:18:45.274Z,6.00
2018-03-08T01:21:12.897Z,5.90
2018-03-08T01:23:41.263Z,6.00
2018-03-08T01:26:08.833Z,5.90
2018-03-08T01:28:37.218Z,6.00
2018-03-08T01:31:05.566Z,6.00
2018-03-08T01:33:33.133Z,6.00
2018-03-08T01:36:00.742Z,6.00
2018-03-08T01:38:28.353Z,6.00
2018-03-08T01:40:55.922Z,6.00
2018-03-08T01:43:23.560Z,6.10
2018-03-08T01:45:51.170Z,6.10
2018-03-08T01:48:19.519Z,6.10
2018-03-08T01:50:47.164Z,6.10
2018-03-08T01:53:14.761Z,6.00
2018-03-08T01:55:43.098Z,6.10
2018-03-08T01:58:10.732Z,6.10
2018-03-08T02:00:38.343Z,6.00
2018-03-08T02:03:05.911Z,6.10
2018-03-08T02:05:33.480Z,6.10
2018-03-08T02:08:01.081Z,6.20
2018-03-08T02:10:28.665Z,6.20
2018-03-08T02:12:59.472Z,6.20
2018-03-08T02:15:28.790Z,6.20
2018-03-08T02:17:59.472Z,6.20
2018-03-08T02:20:30.001Z,6.20
2018-03-08T02:23:01.830Z,6.10
2018-03-08T02:25:32.702Z,6.10
2018-03-08T02:28:03.998Z,6.10
2018-03-08T02:30:37.763Z,6.10
2018-03-08T02:33:08.126Z,6.10
2018-03-08T02:35:39.014Z,6.10
2018-03-08T02:38:11.629Z,6.00
2018-03-08T02:40:42.718Z,6.00
2018-03-08T02:43:15.164Z,6.00
2018-03-08T02:45:45.032Z,6.00
2018-03-08T02:48:16.391Z,5.90
2018-03-08T02:50:47.152Z,5.90
2018-03-08T02:53:17.728Z,5.90
2018-03-08T02:55:47.642Z,5.90
2018-03-08T02:58:17.558Z,6.00
2018-03-08T03:00:47.313Z,6.10
2018-03-08T03:03:17.254Z,6.10
2018-03-08T03:05:47.146Z,6.10
2018-03-08T03:08:24.225Z,6.10
2018-03-08T03:10:55.584Z,6.10
2018-03-08T03:13:26.060Z,6.20
2018-03-08T03:15:56.891Z,6.20
2018-03-08T03:18:27.076Z,6.20
2018-03-08T03:20:55.449Z,6.20
2018-03-08T03:23:24.045Z,6.20
2018-03-08T03:25:53.047Z,6.30
2018-03-08T03:28:23.574Z,6.30
2018-03-08T03:30:53.434Z,6.30
2018-03-08T03:33:24.065Z,6.30
2018-03-08T03:36:01.666Z,6.20
2018-03-08T03:38:32.335Z,6.20
2018-03-08T03:41:01.932Z,6.20
2018-03-08T03:43:32.710Z,6.20
2018-03-08T03:46:03.371Z,6.10
2018-03-08T03:48:33.144Z,6.00
2018-03-08T03:51:04.637Z,6.00
2018-03-08T03:53:34.636Z,6.00
2018-03-08T03:56:04.150Z,6.10
2018-03-08T03:58:34.925Z,6.00
2018-03-08T04:01:09.197Z,6.10
2018-03-08T04:03:39.049Z,6.00
2018-03-08T04:06:09.492Z,6.10
2018-03-08T04:08:40.190Z,6.00
2018-03-08T04:11:10.067Z,6.10
2018-03-08T04:13:41.539Z,6.10
2018-03-08T04:16:11.206Z,6.10
2018-03-08T04:18:41.968Z,6.10
2018-03-08T04:21:11.434Z,6.10
2018-03-08T04:23:41.019Z,6.10
2018-03-08T04:26:11.787Z,6.10
2018-03-08T04:28:41.364Z,6.10
2018-03-08T04:31:10.898Z,6.10
2018-03-08T04:33:40.693Z,6.00
2018-03-08T04:36:09.880Z,6.00
2018-03-08T04:38:38.181Z,5.90
2018-03-08T04:41:06.825Z,5.90
2018-03-08T04:43:34.423Z,5.90
2018-03-08T04:46:02.027Z,5.90
2018-03-08T04:48:29.666Z,5.90
2018-03-08T04:50:57.282Z,5.80
2018-03-08T04:53:25.619Z,5.90
2018-03-08T04:55:54.068Z,5.90
2018-03-08T04:58:21.661Z,5.90
2018-03-08T05:00:49.303Z,5.90
2018-03-08T05:03:16.931Z,5.90
2018-03-08T05:05:45.283Z,5.90
2018-03-08T05:08:12.905Z,5.90
2018-03-08T05:10:40.488Z,6.00
2018-03-08T05:13:08.099Z,6.00
2018-03-08T05:15:36.438Z,6.00
2018-03-08T05:18:04.083Z,6.00
2018-03-08T05:20:31.667Z,6.00
2018-03-08T05:22:59.285Z,5.90
2018-03-08T05:25:26.899Z,5.90
2018-03-08T05:27:54.490Z,5.90
2018-03-08T05:30:22.115Z,5.90
2018-03-08T05:32:49.706Z,5.90
2018-03-08T05:35:18.043Z,5.90
2018-03-08T05:37:45.655Z,5.90
2018-03-08T05:40:14.014Z,5.90
2018-03-08T05:42:41.667Z,5.90
2018-03-08T05:45:09.267Z,5.90
2018-03-08T05:47:36.836Z,5.80
2018-03-08T05:50:04.449Z,5.60
2018-03-08T05:52:32.055Z,5.60
2018-03-08T05:54:59.648Z,5.40
2018-03-08T05:57:27.276Z,5.40
2018-03-08T05:59:54.848Z,5.40
2018-03-08T06:02:22.458Z,5.50
2018-03-08T06:04:50.078Z,5.50
2018-03-08T06:07:17.713Z,5.50
2018-03-08T06:09:45.338Z,5.40
2018-03-08T06:12:12.909Z,5.40
2018-03-08T06:14:40.513Z,5.40
2018-03-08T06:17:08.087Z,5.40
2018-03-08T06:19:35.703Z,5.30
2018-03-08T06:22:03.312Z,5.30
2018-03-08T06:24:30.997Z,5.20
2018-03-08T06:26:58.610Z,5.30
2018-03-08T06:29:26.990Z,5.30
2018-03-08T06:31:54.590Z,5.40
2018-03-08T06:34:22.243Z,5.40
2018-03-08T06:36:49.886Z,5.30
2018-03-08T06:39:17.503Z,5.30
2018-03-08T06:41:45.934Z,5.40
2018-03-08T06:44:13.509Z,5.40
2018-03-08T06:46:41.153Z,5.50
2018-03-08T06:49:08.762Z,5.60
2018-03-08T06:51:36.330Z,5.60
2018-03-08T06:54:03.898Z,5.60
2018-03-08T06:56:31.538Z,5.60
2018-03-08T06:58:59.140Z,5.60
2018-03-08T07:01:26.740Z,5.50
2018-03-08T07:03:54.399Z,5.50
2018-03-08T07:06:21.989Z,5.60
2018-03-08T07:08:49.643Z,5.70
2018-03-08T07:11:17.268Z,5.70
2018-03-08T07:13:44.887Z,5.90
2018-03-08T07:16:12.458Z,5.90
2018-03-08T07:18:40.806Z,6.10
2018-03-08T07:21:08.423Z,6.10
2018-03-08T07:23:36.010Z,6.20
2018-03-08T07:26:03.805Z,6.20
2018-03-08T07:28:32.538Z,6.50
2018-03-08T07:31:00.256Z,6.50
2018-03-08T07:33:28.116Z,6.60
2018-03-08T07:35:55.880Z,6.70
2018-03-08T07:38:24.750Z,6.60
2018-03-08T07:40:52.378Z,6.60
2018-03-08T07:43:21.236Z,6.70
2018-03-08T07:45:48.809Z,6.70
2018-03-08T07:48:17.390Z,6.60
2018-03-08T07:50:45.079Z,5.60
2018-03-08T07:53:12.718Z,6.80
2018-03-08T07:55:40.311Z,6.90
2018-03-08T07:58:07.960Z,7.10
2018-03-08T08:00:35.602Z,7.10
2018-03-08T08:03:03.223Z,7.20
2018-03-08T08:05:42.579Z,7.50
2018-03-08T08:08:22.015Z,7.40
2018-03-08T08:10:49.668Z,7.50
2018-03-08T08:13:17.348Z,7.20
2018-03-08T08:15:44.985Z,7.20
2018-03-08T08:18:12.675Z,7.20
2018-03-08T08:20:40.287Z,7.40
2018-03-08T08:23:07.917Z,7.60
2018-03-08T08:25:36.384Z,7.90
2018-03-08T08:28:03.962Z,7.80
2018-03-08T08:30:32.314Z,8.30
2018-03-08T08:32:59.976Z,8.20
2018-03-08T08:35:27.563Z,8.50
2018-03-08T08:37:55.183Z,8.70
2018-03-08T08:40:22.795Z,8.70
2018-03-08T08:42:51.486Z,9.00
2018-03-08T08:45:19.490Z,9.00
2018-03-08T09:01:20.240Z,15.20
2018-03-08T09:03:47.967Z,14.90
2018-03-08T09:06:16.644Z,13.80
2018-03-08T09:08:44.324Z,12.40
2018-03-08T09:11:12.699Z,11.00
2018-03-08T09:13:40.314Z,11.00
2018-03-08T09:16:07.923Z,10.30
2018-03-08T09:18:35.505Z,10.00
2018-03-08T09:21:03.887Z,10.10
2018-03-08T09:23:32.285Z,10.10
2018-03-08T09:25:59.891Z,10.10
2018-03-08T09:28:27.461Z,10.10
2018-03-08T09:30:55.056Z,10.20
2018-03-08T09:33:22.684Z,9.80
2018-03-08T09:35:50.255Z,9.90
2018-03-08T09:38:17.875Z,10.10
2018-03-08T09:40:45.483Z,10.40
2018-03-08T09:43:13.156Z,10.60
2018-03-08T09:45:41.498Z,10.00
2018-03-08T09:48:09.067Z,10.00
2018-03-08T09:50:36.725Z,9.80
2018-03-08T09:53:04.323Z,9.60
2018-03-08T09:55:32.725Z,9.60
2018-03-08T09:58:00.306Z,9.60
2018-03-08T10:00:27.897Z,9.60
2018-03-08T10:02:55.490Z,9.60
2018-03-08T10:05:23.059Z,9.40
2018-03-08T10:07:50.670Z,9.20
2018-03-08T10:10:18.218Z,9.10
2018-03-08T10:12:45.824Z,9.00
2018-03-08T10:15:13.417Z,8.90
2018-03-08T10:17:40.996Z,8.90
2018-03-08T10:20:08.605Z,9.00
2018-03-08T10:22:37.074Z,9.40
2018-03-08T10:25:04.691Z,9.40
2018-03-08T10:27:32.265Z,9.60
2018-03-08T10:29:59.847Z,10.20
2018-03-08T10:32:27.510Z,10.50
2018-03-08T10:34:55.096Z,10.60
2018-03-08T10:37:23.471Z,10.30
2018-03-08T10:39:51.079Z,10.30
2018-03-08T10:42:18.746Z,10.30
2018-03-08T10:44:46.331Z,10.20
2018-03-08T10:47:13.919Z,10.60
2018-03-08T10:49:48.325Z,10.70
2018-03-08T10:52:15.891Z,10.70
2018-03-08T10:54:43.506Z,10.60
2018-03-08T10:57:11.098Z,10.60
2018-03-08T10:59:38.670Z,10.70
2018-03-08T11:02:23.054Z,10.80
2018-03-08T11:04:56.217Z,11.00
2018-03-08T11:07:23.843Z,13.10
2018-03-08T11:09:51.480Z,15.30
2018-03-08T11:12:19.904Z,16.50
2018-03-08T11:14:47.458Z,16.50
2018-03-08T11:17:15.053Z,16.50
2018-03-08T11:19:42.637Z,15.30
2018-03-08T11:22:11.000Z,14.40
2018-03-08T11:24:39.370Z,15.30
2018-03-08T11:27:06.976Z,15.20
2018-03-08T11:29:34.595Z,16.10
2018-03-08T11:32:02.197Z,16.70
2018-03-08T11:34:29.830Z,17.00
2018-03-08T11:36:58.179Z,15.50
2018-03-08T11:39:25.770Z,15.50
2018-03-08T11:41:54.183Z,14.10
2018-03-08T11:44:21.737Z,14.10
2018-03-08T11:46:49.343Z,13.90
2018-03-08T11:49:16.935Z,13.60
2018-03-08T11:51:46.349Z,13.00
2018-03-08T11:54:14.687Z,12.60
2018-03-08T11:56:42.249Z,12.50
2018-03-08T11:59:09.851Z,12.40
2018-03-08T12:01:38.188Z,13.40
2018-03-08T12:04:05.841Z,13.30
2018-03-08T12:06:33.468Z,13.60
2018-03-08T12:09:01.111Z,13.60
2018-03-08T12:11:28.744Z,13.50
2018-03-08T12:13:57.250Z,14.00
2018-03-08T12:16:25.635Z,16.40
2018-03-08T12:18:53.966Z,17.30
2018-03-08T12:21:21.570Z,17.20
2018-03-08T12:23:49.920Z,15.40
2018-03-08T12:26:17.544Z,15.30
2018-03-08T12:28:45.160Z,14.90
2018-03-08T12:31:12.779Z,14.90
2018-03-08T12:33:40.378Z,14.80
2018-03-08T12:38:40.911Z,15.50
2018-03-08T12:41:08.487Z,15.50
2018-03-08T12:43:36.710Z,14.80
2018-03-08T12:46:05.710Z,14.30
2018-03-08T12:48:33.325Z,14.00
2018-03-08T12:51:00.885Z,14.30
2018-03-08T12:53:28.503Z,14.20
2018-03-08T12:55:56.093Z,14.60
2018-03-08T12:58:23.690Z,14.80
2018-03-08T13:00:52.223Z,14.60
2018-03-08T13:03:19.797Z,14.50
2018-03-08T13:05:47.423Z,14.40
2018-03-08T13:08:14.986Z,14.10
2018-03-08T13:10:42.609Z,14.20
2018-03-08T13:13:10.202Z,14.00
2018-03-08T13:15:37.807Z,14.00
2018-03-08T13:18:05.413Z,14.10
2018-03-08T13:20:33.777Z,13.80
2018-03-08T13:23:02.202Z,13.70
2018-03-08T13:25:30.589Z,13.50
2018-03-08T13:27:58.199Z,13.50
2018-03-08T13:30:25.759Z,13.50
2018-03-08T13:32:53.378Z,13.50
2018-03-08T13:35:20.954Z,13.10
2018-03-08T13:37:48.567Z,13.30
2018-03-08T13:40:16.134Z,13.50
2018-03-08T13:42:43.738Z,13.70
2018-03-08T13:45:11.363Z,14.30
2018-03-08T13:47:38.947Z,14.90
2018-03-08T13:50:07.515Z,15.30
2018-03-08T13:52:38.095Z,16.10
2018-03-08T13:55:07.003Z,16.60
2018-03-08T13:57:35.379Z,15.00
2018-03-08T14:00:03.803Z,15.40
2018-03-08T14:02:32.211Z,15.40
2018-03-08T14:04:59.807Z,15.60
2018-03-08T14:07:28.135Z,14.70
2018-03-08T14:09:55.752Z,14.60
2018-03-08T14:12:24.133Z,14.50
2018-03-08T14:14:52.454Z,14.40
2018-03-08T14:17:20.019Z,14.40
2018-03-08T14:19:47.623Z,14.90
2018-03-08T14:22:15.950Z,15.20
2018-03-08T14:24:43.622Z,15.10
2018-03-08T14:27:11.245Z,15.10
2018-03-08T14:29:38.862Z,15.10
2018-03-08T14:32:06.552Z,14.90
2018-03-08T14:34:34.875Z,15.20
2018-03-08T14:39:35.430Z,15.00
2018-03-08T14:42:03.168Z,15.10
2018-03-08T14:44:31.025Z,15.20
2018-03-08T14:46:59.462Z,14.50
2018-03-08T14:49:27.059Z,14.50
2018-03-08T14:51:55.422Z,13.90
2018-03-08T14:54:23.041Z,13.90
2018-03-08T14:56:50.814Z,13.90
2018-03-08T14:59:18.384Z,14.40
2018-03-08T15:01:46.019Z,14.80
2018-03-08T15:04:13.663Z,14.50
2018-03-08T15:06:42.072Z,13.60
2018-03-08T15:09:09.641Z,13.60
2018-03-08T15:11:37.223Z,13.40
2018-03-08T15:14:04.840Z,13.60
2018-03-08T15:16:32.419Z,13.70
2018-03-08T15:19:00.031Z,14.40
2018-03-08T15:21:27.657Z,14.10
2018-03-08T15:23:55.463Z,14.10
2018-03-08T15:26:23.075Z,14.50
2018-03-08T15:28:50.682Z,14.30
2018-03-08T15:31:18.255Z,14.70
2018-03-08T15:33:46.638Z,14.40
2018-03-08T15:36:14.977Z,14.50
2018-03-08T15:38:44.558Z,14.50
2018-03-08T15:41:12.154Z,14.40
2018-03-08T15:43:39.767Z,14.40
2018-03-08T15:46:07.336Z,14.30
2018-03-08T15:48:35.145Z,14.10
2018-03-08T15:51:02.731Z,13.80
2018-03-08T15:53:31.091Z,13.60
2018-03-08T15:55:58.711Z,13.60
2018-03-08T15:58:27.036Z,13.60
2018-03-08T16:00:54.756Z,13.60
2018-03-08T16:03:22.351Z,13.50
2018-03-08T16:05:49.937Z,13.50
2018-03-08T16:08:25.368Z,13.20
2018-03-08T16:10:53.728Z,13.20
2018-03-08T16:13:21.347Z,13.10
2018-03-08T16:15:48.919Z,13.20
2018-03-08T16:18:16.566Z,13.10
2018-03-08T16:20:44.125Z,13.10
2018-03-08T16:23:11.752Z,13.10
2018-03-08T16:25:39.394Z,13.10
2018-03-08T16:28:06.959Z,13.10
2018-03-08T16:30:36.568Z,12.90
2018-03-08T16:33:04.175Z,12.90
2018-03-08T16:35:31.747Z,12.80
2018-03-08T16:37:59.482Z,12.80
2018-03-08T16:40:27.872Z,12.70
2018-03-08T16:42:56.256Z,12.60
2018-03-08T16:45:24.677Z,12.60
2018-03-08T16:47:52.272Z,12.60
2018-03-08T16:50:19.876Z,12.60
2018-03-08T16:52:47.436Z,12.70
2018-03-08T16:55:15.120Z,12.60
2018-03-08T16:57:42.723Z,12.60
2018-03-08T17:00:11.095Z,12.40
2018-03-08T17:02:38.735Z,12.40
2018-03-08T17:05:06.320Z,12.40
2018-03-08T17:07:33.927Z,12.40
2018-03-08T17:10:01.550Z,12.40
2018-03-08T17:12:29.202Z,12.30
2018-03-08T17:14:56.818Z,12.30
2018-03-08T17:17:24.390Z,12.20
2018-03-08T17:19:52.018Z,12.20
2018-03-08T17:22:20.388Z,12.00
2018-03-08T17:24:48.754Z,11.90
2018-03-08T17:27:16.424Z,11.90
2018-03-08T17:29:44.037Z,12.00
2018-03-08T17:32:11.655Z,11.90
2018-03-08T17:34:39.979Z,11.70
2018-03-08T17:37:07.560Z,11.70
2018-03-08T17:39:35.180Z,11.70
2018-03-08T17:42:02.788Z,11.70
2018-03-08T17:44:30.398Z,11.70
2018-03-08T17:46:58.003Z,11.60
2018-03-08T17:49:25.619Z,11.60
2018-03-08T17:51:53.218Z,11.50
2018-03-08T17:54:20.845Z,11.40
2018-03-08T17:56:49.204Z,11.40
2018-03-08T17:59:17.572Z,11.40
2018-03-08T18:01:45.181Z,11.40
2018-03-08T18:04:12.744Z,11.40
2018-03-08T18:06:40.784Z,11.40
2018-03-08T18:09:09.517Z,11.30
2018-03-08T18:11:37.340Z,11.20
2018-03-08T18:14:04.969Z,11.20
2018-03-08T18:16:32.543Z,11.10
2018-03-08T18:19:00.127Z,11.00
2018-03-08T18:21:27.747Z,11.00
2018-03-08T18:23:55.352Z,11.00
2018-03-08T18:26:23.686Z,11.00
2018-03-08T18:28:51.308Z,11.00
2018-03-08T18:31:18.883Z,11.00
2018-03-08T18:33:46.501Z,10.90
2018-03-08T18:36:14.068Z,10.90
2018-03-08T18:41:15.355Z,10.90
2018-03-08T18:43:42.968Z,10.90
2018-03-08T18:46:10.595Z,10.90
2018-03-08T18:48:38.210Z,11.00
2018-03-08T18:51:06.601Z,10.90
2018-03-08T18:53:34.177Z,10.90
2018-03-08T18:56:02.621Z,11.00
2018-03-08T18:58:30.230Z,10.90
2018-03-08T19:00:57.840Z,11.00
2018-03-08T19:03:25.450Z,11.00
2018-03-08T19:05:53.023Z,11.00
2018-03-08T19:08:20.643Z,11.00
2018-03-08T19:10:48.980Z,10.90
2018-03-08T19:13:16.583Z,10.90
2018-03-08T19:15:44.138Z,11.00
2018-03-08T19:18:11.755Z,11.00
2018-03-08T19:20:39.326Z,11.00
2018-03-08T19:23:06.886Z,11.00
2018-03-08T19:25:34.479Z,11.00
2018-03-08T19:28:02.088Z,11.00
2018-03-08T19:30:29.706Z,11.00
2018-03-08T19:32:57.313Z,10.90
2018-03-08T19:35:24.878Z,10.90
2018-03-08T19:37:52.492Z,10.90
2018-03-08T19:40:20.103Z,10.90
2018-03-08T19:42:47.667Z,10.90
2018-03-08T19:45:15.232Z,10.90
2018-03-08T19:47:42.861Z,10.80
2018-03-08T19:50:11.189Z,10.80
2018-03-08T19:52:38.807Z,10.80
2018-03-08T19:55:07.161Z,10.80
2018-03-08T19:57:35.518Z,10.70
2018-03-08T20:00:03.128Z,10.70
2018-03-08T20:02:30.785Z,10.70
2018-03-08T20:04:59.118Z,10.70
2018-03-08T20:07:26.734Z,10.70
2018-03-08T20:09:54.324Z,10.70
2018-03-08T20:12:21.926Z,10.80
2018-03-08T20:14:49.612Z,10.70
2018-03-08T20:17:17.947Z,10.60
2018-03-08T20:19:45.585Z,10.60
2018-03-08T20:22:13.142Z,10.50
2018-03-08T20:24:40.818Z,10.40
2018-03-08T20:27:08.487Z,10.40
2018-03-08T20:29:36.078Z,10.30
2018-03-08T20:32:03.682Z,10.20
2018-03-08T20:34:31.258Z,10.10
2018-03-08T20:36:58.862Z,10.00
2018-03-08T20:39:26.443Z,10.00
2018-03-08T20:41:54.084Z,10.00
2018-03-08T20:44:21.671Z,9.90
2018-03-08T20:46:50.054Z,10.00
2018-03-08T20:49:18.389Z,10.00
2018-03-08T20:51:45.984Z,10.00
2018-03-08T20:54:14.376Z,10.00
2018-03-08T20:56:41.996Z,10.00
2018-03-08T20:59:09.609Z,10.00
2018-03-08T21:01:37.647Z,10.00
2018-03-08T21:04:06.106Z,9.90
2018-03-08T21:06:33.688Z,9.80
2018-03-08T21:09:01.255Z,9.70
2018-03-08T21:11:29.633Z,9.60
2018-03-08T21:13:57.983Z,9.60
2018-03-08T21:16:25.597Z,9.60
2018-03-08T21:18:53.161Z,9.70
2018-03-08T21:21:20.798Z,9.60
2018-03-08T21:23:49.145Z,9.70
2018-03-08T21:26:16.754Z,9.60
2018-03-08T21:28:45.123Z,9.40
2018-03-08T21:31:13.486Z,9.20
2018-03-08T21:33:41.092Z,9.20
2018-03-08T21:36:08.732Z,9.20
2018-03-08T21:38:37.122Z,8.60
2018-03-08T21:41:04.701Z,8.60
2018-03-08T21:43:32.316Z,8.40
2018-03-08T21:45:59.935Z,8.00
2018-03-08T21:48:27.496Z,7.90
2018-03-08T21:50:55.085Z,7.90
2018-03-08T21:53:22.699Z,8.00
2018-03-08T21:55:50.340Z,7.90
2018-03-08T21:58:18.707Z,7.90
2018-03-08T22:00:46.255Z,7.80
2018-03-08T22:03:13.885Z,7.70
2018-03-08T22:05:41.448Z,7.50
2018-03-08T22:08:09.056Z,7.40
2018-03-08T22:10:37.390Z,7.30
2018-03-08T22:13:04.982Z,7.30
2018-03-08T22:15:32.580Z,7.30
2018-03-08T22:18:00.140Z,7.30
2018-03-08T22:20:27.759Z,7.20
2018-03-08T22:22:55.351Z,7.30
2018-03-08T22:25:23.685Z,6.90
2018-03-08T22:27:51.293Z,6.90
2018-03-08T22:30:19.657Z,6.70
2018-03-08T22:32:47.225Z,6.70
2018-03-08T22:35:15.620Z,6.50
2018-03-08T22:37:43.954Z,6.60
2018-03-08T22:42:44.398Z,6.60
2018-03-08T22:45:12.026Z,6.70
2018-03-08T22:47:39.596Z,6.70
2018-03-08T22:50:07.204Z,6.60
2018-03-08T22:52:34.777Z,6.70
2018-03-08T22:55:03.306Z,6.90
2018-03-08T22:57:30.910Z,6.80
2018-03-08T22:59:58.498Z,6.60
2018-03-08T23:02:32.541Z,6.70
2018-03-08T23:05:00.206Z,6.70
2018-03-08T23:07:27.754Z,6.60
2018-03-08T23:09:55.396Z,6.70
2018-03-08T23:12:23.719Z,6.60
2018-03-08T23:14:51.271Z,6.60
2018-03-08T23:17:18.889Z,6.70
2018-03-08T23:19:47.279Z,7.00
2018-03-08T23:22:14.845Z,7.00
2018-03-08T23:24:42.406Z,6.90
2018-03-08T23:27:10.039Z,7.00
2018-03-08T23:29:37.626Z,6.80
2018-03-08T23:32:05.232Z,6.70
2018-03-08T23:34:32.811Z,6.70
2018-03-08T23:37:00.396Z,6.60
2018-03-08T23:39:28.767Z,6.50
2018-03-08T23:41:56.326Z,6.50
2018-03-08T23:44:24.722Z,6.40
2018-03-08T23:46:53.042Z,6.40
2018-03-08T23:49:20.646Z,6.40
2018-03-08T23:51:49.021Z,6.60
2018-03-08T23:54:16.600Z,6.60
2018-03-08T23:56:44.950Z,6.70
2018-03-08T23:59:12.563Z,6.70
